createdAt,value
2023-10-20T00:03:01.310Z,97501.91
2023-10-20T00:08:04.101Z,97492.81
2023-10-20T00:13:06.663Z,97490.69
2023-10-20T00:18:08.437Z,97489.00
2023-10-20T00:23:10.414Z,97483.53
2023-10-20T00:28:12.134Z,97472.03
2023-10-20T00:33:13.970Z,97477.44
2023-10-20T00:38:15.748Z,97476.88
2023-10-20T00:43:17.666Z,97482.06
2023-10-20T00:48:19.495Z,97484.38
2023-10-20T00:53:23.689Z,97472.59
2023-10-20T00:58:29.022Z,97474.94
2023-10-20T01:03:33.990Z,97464.72
2023-10-20T01:08:35.864Z,97455.97
2023-10-20T01:13:37.631Z,97451.69
2023-10-20T01:18:39.774Z,97428.47
2023-10-20T01:23:41.641Z,97423.00
2023-10-20T01:28:43.938Z,97420.06
2023-10-20T01:33:46.309Z,97421.78
2023-10-20T01:38:48.088Z,97385.38
2023-10-20T01:43:49.798Z,97387.13
2023-10-20T01:48:51.525Z,97358.28
2023-10-20T01:53:53.220Z,97353.03
2023-10-20T01:58:55.204Z,97332.53
2023-10-20T02:03:57.114Z,97319.38
2023-10-20T02:08:59.607Z,97303.59
2023-10-20T02:14:01.465Z,97294.81
2023-10-20T02:19:05.884Z,97308.34
2023-10-20T02:24:09.106Z,97307.31
2023-10-20T02:29:10.830Z,97310.59
2023-10-20T02:34:12.784Z,97306.59
2023-10-20T02:39:15.120Z,97299.81
2023-10-20T02:44:19.071Z,97298.78
2023-10-20T02:49:21.312Z,97292.25
2023-10-20T02:54:23.054Z,97296.34
2023-10-20T02:59:24.822Z,97298.31
2023-10-20T03:04:26.705Z,97289.22
2023-10-20T03:09:28.536Z,97288.59
2023-10-20T03:14:32.006Z,97275.44
2023-10-20T03:19:33.966Z,97276.03
2023-10-20T03:24:35.767Z,97280.78
2023-10-20T03:29:37.556Z,97278.00
2023-10-20T03:34:39.310Z,97262.19
2023-10-20T03:39:41.202Z,97254.34
2023-10-20T03:44:44.809Z,97256.38
2023-10-20T03:49:47.887Z,97256.44
2023-10-20T03:54:49.597Z,97259.25
2023-10-20T03:59:51.291Z,97255.91
2023-10-20T04:04:53.082Z,97250.56
2023-10-20T04:09:54.768Z,97246.09
2023-10-20T04:14:56.570Z,97231.63
2023-10-20T04:19:58.277Z,97219.84
2023-10-20T04:25:00.143Z,97206.16
2023-10-20T04:30:20.078Z,97196.97
2023-10-20T04:35:40.109Z,97187.25
2023-10-20T04:41:00.246Z,97184.84
2023-10-20T04:46:20.258Z,97186.72
2023-10-20T04:51:40.518Z,97181.69
2023-10-20T04:57:02.169Z,97182.16
2023-10-20T05:02:25.777Z,97183.66
2023-10-20T05:07:27.756Z,97175.38
2023-10-20T05:12:29.577Z,97157.50
2023-10-20T05:17:33.398Z,97155.38
2023-10-20T05:22:35.190Z,97152.84
2023-10-20T05:27:36.902Z,97131.81
2023-10-20T05:32:39.467Z,97132.72
2023-10-20T05:37:41.317Z,97118.38
2023-10-20T05:42:43.021Z,97126.75
2023-10-20T05:47:45.428Z,97131.31
2023-10-20T05:52:47.270Z,97140.09
2023-10-20T05:57:49.037Z,97135.38
2023-10-20T06:02:50.962Z,97124.72
2023-10-20T06:07:52.704Z,97127.56
2023-10-20T06:12:55.393Z,97123.91
2023-10-20T06:17:58.742Z,97118.69
2023-10-20T06:23:01.342Z,97104.81
2023-10-20T06:28:03.108Z,97092.63
2023-10-20T06:33:16.940Z,97105.19
2023-10-20T06:38:37.019Z,97089.44
2023-10-20T06:43:38.832Z,97081.09
2023-10-20T06:48:40.577Z,97070.38
2023-10-20T06:53:42.313Z,97070.66
2023-10-20T06:58:45.081Z,97073.16
2023-10-20T07:03:47.959Z,97056.44
2023-10-20T07:08:52.129Z,97056.25
2023-10-20T07:13:53.982Z,97042.22
2023-10-20T07:18:55.910Z,97024.72
2023-10-20T07:23:57.740Z,97025.69
2023-10-20T07:28:59.448Z,97031.22
2023-10-20T07:34:01.211Z,97001.13
2023-10-20T07:39:03.011Z,97008.88
2023-10-20T07:44:05.732Z,96997.22
2023-10-20T07:49:07.602Z,96978.00
2023-10-20T07:54:10.206Z,96986.38
2023-10-20T07:59:12.369Z,96979.84
2023-10-20T08:04:14.469Z,96964.25
2023-10-20T08:09:16.402Z,96986.28
2023-10-20T08:14:18.134Z,96978.16
2023-10-20T08:19:19.880Z,96958.03
2023-10-20T08:24:21.568Z,96950.22
2023-10-20T08:29:23.388Z,96933.44
2023-10-20T08:34:25.254Z,96944.38
2023-10-20T08:39:28.961Z,96946.38
2023-10-20T08:44:31.621Z,96924.38
2023-10-20T08:49:33.719Z,96907.63
2023-10-20T08:54:36.150Z,96902.81
2023-10-20T08:59:38.106Z,96898.31
2023-10-20T09:04:41.851Z,96912.56
2023-10-20T09:09:44.249Z,96906.19
2023-10-20T09:14:46.013Z,96873.75
2023-10-20T09:19:47.841Z,96865.13
2023-10-20T09:24:52.188Z,96851.28
2023-10-20T09:29:57.417Z,96861.69
2023-10-20T09:34:59.288Z,96848.19
2023-10-20T09:40:09.669Z,96834.66
2023-10-20T09:45:16.493Z,96844.50
2023-10-20T09:50:20.824Z,96842.44
2023-10-20T09:55:22.976Z,96837.59
2023-10-20T10:00:35.835Z,96849.28
2023-10-20T10:05:37.938Z,96843.66
2023-10-20T10:10:39.707Z,96848.72
2023-10-20T10:15:43.225Z,96836.31
2023-10-20T10:20:50.086Z,96853.59
2023-10-20T10:25:52.039Z,96863.16
2023-10-20T10:30:54.004Z,96861.50
2023-10-20T10:36:11.265Z,96866.22
2023-10-20T10:41:13.347Z,96880.84
2023-10-20T10:46:15.131Z,96879.56
2023-10-20T10:51:21.320Z,96875.81
2023-10-20T10:56:23.327Z,96870.44
2023-10-20T11:01:25.210Z,96863.75
2023-10-20T11:06:27.058Z,96856.00
2023-10-20T11:11:28.897Z,96841.31
2023-10-20T11:16:30.737Z,96825.22
2023-10-20T11:21:45.666Z,96830.69
2023-10-20T11:26:59.403Z,96822.66
2023-10-20T11:32:06.791Z,96802.78
2023-10-20T11:37:09.968Z,96798.94
2023-10-20T11:42:13.070Z,96788.31
2023-10-20T11:47:14.817Z,96778.56
2023-10-20T11:52:16.591Z,96780.00
2023-10-20T11:57:19.135Z,96779.81
2023-10-20T12:02:23.662Z,96789.44
2023-10-20T12:07:25.958Z,96792.94
2023-10-20T12:12:27.891Z,96788.53
2023-10-20T12:17:29.960Z,96775.34
2023-10-20T12:22:31.787Z,96771.72
2023-10-20T12:27:33.554Z,96782.53
2023-10-20T12:32:35.365Z,96782.13
2023-10-20T12:37:37.110Z,96767.13
2023-10-20T12:42:38.856Z,96797.16
2023-10-20T12:47:40.667Z,96780.38
2023-10-20T12:52:42.433Z,96787.19
2023-10-20T12:57:44.152Z,96791.50
2023-10-20T13:02:47.081Z,96795.81
2023-10-20T13:07:51.396Z,96788.53
2023-10-20T13:12:53.881Z,96783.91
2023-10-20T13:17:57.153Z,96796.94
2023-10-20T13:22:58.962Z,96776.63
2023-10-20T13:28:01.019Z,96760.59
2023-10-20T13:33:05.758Z,96771.03
2023-10-20T13:38:18.213Z,96739.72
2023-10-20T13:43:21.580Z,96750.59
2023-10-20T13:48:23.418Z,96746.59
2023-10-20T13:53:25.958Z,96725.59
2023-10-20T13:58:28.056Z,96720.63
2023-10-20T14:03:30.672Z,96713.38
2023-10-20T14:08:32.694Z,96695.38
2023-10-20T14:13:34.805Z,96690.66
2023-10-20T14:18:36.574Z,96692.34
2023-10-20T14:23:38.523Z,96688.66
2023-10-20T14:28:40.287Z,96690.31
2023-10-20T14:33:42.070Z,96699.59
2023-10-20T14:38:44.385Z,96688.00
2023-10-20T14:43:46.165Z,96702.41
2023-10-20T14:48:48.046Z,96707.88
2023-10-20T14:58:52.018Z,96714.59
2023-10-20T15:03:54.055Z,96733.66
2023-10-20T15:08:55.863Z,96737.03
2023-10-20T15:13:57.614Z,96735.78
2023-10-20T15:18:59.374Z,96747.22
2023-10-20T15:24:02.254Z,96757.44
2023-10-20T15:29:05.081Z,96750.38
2023-10-20T15:34:06.842Z,96761.41
2023-10-20T15:39:11.434Z,96755.75
2023-10-20T15:44:13.197Z,96782.63
2023-10-20T15:49:14.886Z,96781.97
2023-10-20T15:54:20.026Z,96781.97
2023-10-20T15:59:23.641Z,96778.03
2023-10-20T16:04:25.678Z,96777.16
2023-10-20T16:09:27.618Z,96798.94
2023-10-20T16:14:29.333Z,96779.81
2023-10-20T16:19:31.078Z,96781.88
2023-10-20T16:24:32.989Z,96802.00
2023-10-20T16:29:35.127Z,96849.31
2023-10-20T16:34:37.048Z,96833.25
2023-10-20T16:39:38.875Z,96814.00
2023-10-20T16:44:40.726Z,96822.03
2023-10-20T16:49:42.477Z,96839.97
2023-10-20T16:54:48.427Z,96848.19
2023-10-20T16:59:50.197Z,96828.59
2023-10-20T17:04:52.120Z,96844.25
2023-10-20T17:09:54.273Z,96848.88
2023-10-20T17:14:56.013Z,96857.06
2023-10-20T17:19:57.766Z,96881.72
2023-10-20T17:24:59.529Z,96887.69
2023-10-20T17:30:01.313Z,96878.47
2023-10-20T17:35:03.301Z,96874.72
2023-10-20T17:40:05.592Z,96895.09
2023-10-20T17:45:07.804Z,96903.13
2023-10-20T17:50:10.152Z,96898.56
2023-10-20T17:55:12.737Z,96895.63
2023-10-20T18:00:15.175Z,96918.84
2023-10-20T18:05:18.388Z,96945.66
2023-10-20T18:10:20.094Z,96962.59
2023-10-20T18:15:21.780Z,96972.97
2023-10-20T18:20:24.960Z,96990.38
2023-10-20T18:25:28.832Z,96986.56
2023-10-20T18:30:30.605Z,96965.53
2023-10-20T18:35:35.603Z,96973.53
2023-10-20T18:40:37.407Z,96965.94
2023-10-20T18:45:39.929Z,96988.50
2023-10-20T18:50:41.631Z,96978.25
2023-10-20T18:55:43.606Z,96985.41
2023-10-20T19:00:45.343Z,96993.94
2023-10-20T19:05:49.682Z,96987.94
2023-10-20T19:10:51.396Z,97011.00
2023-10-20T19:15:56.298Z,97013.50
2023-10-20T19:21:02.461Z,97017.97
2023-10-20T19:26:11.227Z,97028.41
2023-10-20T19:31:15.273Z,97035.91
2023-10-20T19:36:18.182Z,97041.28
2023-10-20T19:41:19.896Z,97055.69
2023-10-20T19:46:22.012Z,97071.88
2023-10-20T19:51:24.190Z,97085.47
2023-10-20T19:56:25.939Z,97094.41
2023-10-20T20:01:28.667Z,97103.31
2023-10-20T20:06:30.944Z,97109.13
2023-10-20T20:11:32.678Z,97111.75
2023-10-20T20:16:34.476Z,97127.44
2023-10-20T20:21:36.186Z,97141.16
2023-10-20T20:26:37.888Z,97128.91
2023-10-20T20:31:39.613Z,97105.72
2023-10-20T20:36:41.317Z,97117.44
2023-10-20T20:41:43.110Z,97121.75
2023-10-20T20:46:44.911Z,97119.66
2023-10-20T20:51:46.880Z,97109.47
2023-10-20T20:56:48.647Z,97104.91
2023-10-20T21:01:50.375Z,97107.03
2023-10-20T21:06:52.143Z,97086.91
2023-10-20T21:11:53.867Z,97081.38
2023-10-20T21:16:55.659Z,97080.47
2023-10-20T21:21:57.451Z,97085.19
2023-10-20T21:26:59.191Z,97094.91
2023-10-20T21:32:00.936Z,97098.97
2023-10-20T21:37:02.683Z,97104.94
2023-10-20T21:42:06.196Z,97094.63
2023-10-20T21:47:08.240Z,97085.41
2023-10-20T21:52:09.929Z,97093.66
2023-10-20T21:57:12.187Z,97075.94
2023-10-20T22:02:14.979Z,97082.56
2023-10-20T22:07:16.687Z,97101.56
2023-10-20T22:12:18.380Z,97116.03
2023-10-20T22:17:20.110Z,97105.53
2023-10-20T22:22:21.814Z,97124.31
2023-10-20T22:27:28.086Z,97131.16
2023-10-20T22:32:29.810Z,97157.81
2023-10-20T22:37:31.627Z,97169.63
2023-10-20T22:42:33.449Z,97166.69
2023-10-20T22:47:35.763Z,97188.66
2023-10-20T22:52:37.604Z,97187.94
2023-10-20T22:57:39.470Z,97220.88
2023-10-20T23:02:41.492Z,97208.88
2023-10-20T23:07:44.304Z,97236.53
2023-10-20T23:12:46.034Z,97253.44
2023-10-20T23:17:47.824Z,97270.09
2023-10-20T23:22:49.579Z,97290.56
2023-10-20T23:27:51.286Z,97289.59
2023-10-20T23:32:53.048Z,97298.72
2023-10-20T23:37:54.816Z,97283.28
2023-10-20T23:42:56.511Z,97287.28
2023-10-20T23:47:58.280Z,97296.72
2023-10-20T23:53:00.051Z,97276.84
2023-10-20T23:58:01.797Z,97277.22
